Time;durP1;ratioP1;P1;durP2;ratioP2;P2;SDS_P1;SDS_P2;PMS_P1;PMS_P2;Temp;Humidity;BMP_temperature;BMP_pressure;BME280_temperature;BME280_humidity;BME280_pressure;Samples;Min_cycle;Max_cycle;Signal;HPM_P1;HPM_P2
2023/10/26 00:00:12;;;;;;;240.17;7.97;;;;;;;;;;4972768;28;20081;-55
2023/10/26 00:02:37;;;;;;;222.10;7.55;;;;;;;;;;4975758;28;20737;-54
2023/10/26 00:05:02;;;;;;;195.67;6.77;;;;;;;;;;4975349;28;20018;-54
2023/10/26 00:07:28;;;;;;;229.73;8.50;;;;;;;;;;4973375;28;20265;-54
2023/10/26 00:09:53;;;;;;;153.55;5.72;;;;;;;;;;4974512;28;20161;-55
2023/10/26 00:12:18;;;;;;;275.33;10.10;;;;;;;;;;4972639;28;20051;-54
2023/10/26 00:14:44;;;;;;;188.37;7.63;;;;;;;;;;4974654;28;20266;-55
2023/10/26 00:17:09;;;;;;;137.40;5.00;;;;;;;;;;4973317;28;20282;-55
2023/10/26 00:19:35;;;;;;;226.65;10.52;;;;;;;;;;4973507;28;20577;-55
2023/10/26 00:22:00;;;;;;;155.60;5.53;;;;;;;;;;4974348;28;20114;-55
2023/10/26 00:24:25;;;;;;;214.53;12.13;;;;;;;;;;4974112;28;20109;-55
2023/10/26 00:26:50;;;;;;;175.17;6.40;;;;;;;;;;4975322;28;20320;-55
2023/10/26 00:29:16;;;;;;;218.87;12.90;;;;;;;;;;4975530;28;20561;-54
2023/10/26 00:31:41;;;;;;;189.00;6.47;;;;;;;;;;4974756;28;20387;-54
2023/10/26 00:34:06;;;;;;;230.82;7.38;;;;;;;;;;4973931;28;20364;-55
2023/10/26 00:36:31;;;;;;;131.10;8.73;;;;;;;;;;4978639;28;20275;-55
2023/10/26 00:38:57;;;;;;;159.48;5.80;;;;;;;;;;4976818;28;20396;-55
2023/10/26 00:41:22;;;;;;;222.15;7.97;;;;;;;;;;4974255;28;20053;-55
2023/10/26 00:43:47;;;;;;;166.77;6.85;;;;;;;;;;4974132;28;20195;-55
2023/10/26 00:46:13;;;;;;;135.30;6.10;;;;;;;;;;4972641;28;20035;-55
2023/10/26 00:48:38;;;;;;;174.30;7.15;;;;;;;;;;4975191;28;20230;-55
2023/10/26 00:51:04;;;;;;;210.68;7.55;;;;;;;;;;4973873;28;20042;-54
2023/10/26 00:53:29;;;;;;;232.05;9.00;;;;;;;;;;4972691;28;20023;-55
2023/10/26 00:55:55;;;;;;;185.40;6.60;;;;;;;;;;4972509;28;20227;-54
2023/10/26 00:58:21;;;;;;;275.02;12.77;;;;;;;;;;4971437;28;20346;-54
2023/10/26 01:00:46;;;;;;;174.27;6.30;;;;;;;;;;4974276;28;20046;-55
2023/10/26 01:03:13;;;;;;;144.35;5.68;;;;;;;;;;4974483;28;20027;-55
2023/10/26 01:05:38;;;;;;;234.88;12.20;;;;;;;;;;4974855;28;20041;-55
2023/10/26 01:08:04;;;;;;;159.88;5.82;;;;;;;;;;4974902;28;20424;-55
2023/10/26 01:10:29;;;;;;;244.15;9.20;;;;;;;;;;4972297;28;20133;-55
2023/10/26 01:12:54;;;;;;;178.13;6.38;;;;;;;;;;4973715;28;20041;-54
2023/10/26 01:15:20;;;;;;;243.02;10.25;;;;;;;;;;4970177;28;20097;-54
2023/10/26 01:17:45;;;;;;;169.73;6.20;;;;;;;;;;4974398;28;20109;-54
2023/10/26 01:20:15;;;;;;;187.55;6.85;;;;;;;;;;4974770;28;20544;-55
2023/10/26 01:22:41;;;;;;;202.85;7.28;;;;;;;;;;4976000;28;20145;-54
2023/10/26 01:25:06;;;;;;;140.03;5.17;;;;;;;;;;4975134;28;20407;-55
2023/10/26 01:27:31;;;;;;;334.85;17.30;;;;;;;;;;4972988;28;20377;-55
2023/10/26 01:29:57;;;;;;;148.77;5.70;;;;;;;;;;4975592;28;20418;-55
2023/10/26 01:32:25;;;;;;;202.13;8.25;;;;;;;;;;4975862;28;20650;-55
2023/10/26 01:34:51;;;;;;;154.25;5.85;;;;;;;;;;4977770;28;20033;-54
2023/10/26 01:37:16;;;;;;;168.70;6.80;;;;;;;;;;4976859;28;20035;-55
2023/10/26 01:39:41;;;;;;;167.53;7.57;;;;;;;;;;4977495;28;20273;-55
2023/10/26 01:42:09;;;;;;;152.77;9.60;;;;;;;;;;4979485;28;20293;-55
2023/10/26 01:44:35;;;;;;;134.50;5.03;;;;;;;;;;4979285;28;20428;-55
2023/10/26 01:47:00;;;;;;;104.35;4.20;;;;;;;;;;4978697;28;20043;-55
2023/10/26 01:49:25;;;;;;;233.13;8.73;;;;;;;;;;4978363;28;20022;-55
2023/10/26 01:51:51;;;;;;;197.10;12.80;;;;;;;;;;4977407;28;20296;-54
2023/10/26 01:54:16;;;;;;;222.50;17.77;;;;;;;;;;4976883;28;20482;-54
2023/10/26 01:56:41;;;;;;;133.40;4.93;;;;;;;;;;4978774;28;20681;-54
2023/10/26 01:59:06;;;;;;;231.47;13.43;;;;;;;;;;4977823;28;20355;-55
2023/10/26 02:01:31;;;;;;;202.53;9.70;;;;;;;;;;4979169;28;20285;-55
2023/10/26 02:03:57;;;;;;;215.00;7.37;;;;;;;;;;4977050;28;20340;-55
2023/10/26 02:06:22;;;;;;;264.57;13.43;;;;;;;;;;4975875;28;20270;-55
2023/10/26 02:08:47;;;;;;;247.63;16.90;;;;;;;;;;4977317;28;20288;-54
2023/10/26 02:11:13;;;;;;;171.82;5.93;;;;;;;;;;4976039;28;20290;-54
2023/10/26 02:13:39;;;;;;;152.57;5.38;;;;;;;;;;4976009;28;20262;-54
2023/10/26 02:16:05;;;;;;;183.93;11.48;;;;;;;;;;4967621;28;20117;-54
2023/10/26 02:18:30;;;;;;;184.95;6.22;;;;;;;;;;4977375;28;20117;-55
2023/10/26 02:20:56;;;;;;;244.13;7.90;;;;;;;;;;4976892;28;20026;-55
2023/10/26 02:23:21;;;;;;;232.00;12.15;;;;;;;;;;4976583;28;20026;-54
2023/10/26 02:25:46;;;;;;;178.47;12.67;;;;;;;;;;4978415;28;20489;-55
2023/10/26 02:28:16;;;;;;;191.93;6.35;;;;;;;;;;4976137;28;20277;-54
2023/10/26 02:30:44;;;;;;;179.05;6.10;;;;;;;;;;4975351;28;20034;-54
2023/10/26 02:33:09;;;;;;;173.65;7.35;;;;;;;;;;4976192;28;20030;-54
2023/10/26 02:35:34;;;;;;;194.73;9.55;;;;;;;;;;4975887;28;20116;-54
2023/10/26 02:38:00;;;;;;;221.13;7.37;;;;;;;;;;4978699;28;20023;-54
2023/10/26 02:40:25;;;;;;;256.67;9.50;;;;;;;;;;4973738;28;20788;-55
2023/10/26 02:42:50;;;;;;;214.05;12.13;;;;;;;;;;4977800;28;20621;-55
2023/10/26 02:45:16;;;;;;;186.35;6.20;;;;;;;;;;4976153;28;20186;-55
2023/10/26 02:47:41;;;;;;;174.33;6.87;;;;;;;;;;4976305;28;20401;-54
2023/10/26 02:50:06;;;;;;;144.60;5.45;;;;;;;;;;4976062;28;20266;-55
2023/10/26 02:52:32;;;;;;;266.23;8.98;;;;;;;;;;4975823;28;20394;-55
2023/10/26 02:54:57;;;;;;;150.20;5.27;;;;;;;;;;4975538;28;20033;-54
2023/10/26 02:57:22;;;;;;;174.20;6.50;;;;;;;;;;4976828;28;20288;-54
2023/10/26 02:59:47;;;;;;;148.93;5.43;;;;;;;;;;4980009;28;20269;-54
2023/10/26 03:02:13;;;;;;;181.82;13.38;;;;;;;;;;4977755;28;20057;-54
2023/10/26 03:04:38;;;;;;;139.23;6.20;;;;;;;;;;4976779;28;20025;-54
2023/10/26 03:07:03;;;;;;;170.87;5.73;;;;;;;;;;4975482;28;20278;-55
2023/10/26 03:09:29;;;;;;;168.68;6.20;;;;;;;;;;4976548;28;20285;-55
2023/10/26 03:11:54;;;;;;;192.80;10.50;;;;;;;;;;4981292;28;20397;-55
2023/10/26 03:14:19;;;;;;;199.63;6.47;;;;;;;;;;4977569;28;20027;-55
2023/10/26 03:16:44;;;;;;;195.07;6.53;;;;;;;;;;4971746;28;20038;-56
2023/10/26 03:19:10;;;;;;;144.60;8.00;;;;;;;;;;4975598;28;20022;-54
2023/10/26 03:21:35;;;;;;;217.55;7.35;;;;;;;;;;4976201;28;20160;-56
2023/10/26 03:24:00;;;;;;;266.05;8.85;;;;;;;;;;4976029;28;20026;-55
2023/10/26 03:26:26;;;;;;;247.85;9.07;;;;;;;;;;4975156;28;20068;-56
2023/10/26 03:28:52;;;;;;;251.60;19.55;;;;;;;;;;4973580;28;20506;-55
2023/10/26 03:31:17;;;;;;;209.25;6.95;;;;;;;;;;4973085;28;20459;-55
2023/10/26 03:33:42;;;;;;;170.48;5.88;;;;;;;;;;4975350;28;20027;-55
2023/10/26 03:36:15;;;;;;;154.82;5.43;;;;;;;;;;4973153;28;20221;-54
2023/10/26 03:38:40;;;;;;;188.13;6.28;;;;;;;;;;4976318;28;20029;-54
2023/10/26 03:41:06;;;;;;;167.43;5.88;;;;;;;;;;4977134;28;20073;-54
2023/10/26 03:43:31;;;;;;;258.08;9.70;;;;;;;;;;4974758;28;20029;-55
2023/10/26 03:45:56;;;;;;;155.87;8.00;;;;;;;;;;4975967;28;20030;-55
2023/10/26 03:48:21;;;;;;;160.45;5.78;;;;;;;;;;4974137;28;20300;-56
2023/10/26 03:50:47;;;;;;;172.27;6.10;;;;;;;;;;4974001;28;20410;-55
2023/10/26 03:53:12;;;;;;;145.50;5.20;;;;;;;;;;4972350;28;20026;-55
2023/10/26 03:55:37;;;;;;;290.67;10.50;;;;;;;;;;4975174;28;20821;-55
2023/10/26 03:58:03;;;;;;;141.50;5.20;;;;;;;;;;4977322;28;20785;-55
2023/10/26 04:00:28;;;;;;;254.20;9.40;;;;;;;;;;4972594;28;20797;-54
2023/10/26 04:02:53;;;;;;;181.70;6.22;;;;;;;;;;4976837;28;20084;-54
2023/10/26 04:05:19;;;;;;;123.22;4.80;;;;;;;;;;4975938;28;20550;-55
2023/10/26 04:07:44;;;;;;;129.18;4.90;;;;;;;;;;4975264;28;20030;-54
2023/10/26 04:10:09;;;;;;;188.02;6.55;;;;;;;;;;4975417;28;20065;-54
2023/10/26 04:12:35;;;;;;;260.30;9.27;;;;;;;;;;4976150;28;20399;-55
2023/10/26 04:15:00;;;;;;;129.63;4.97;;;;;;;;;;4976721;28;20553;-54
2023/10/26 04:17:25;;;;;;;170.40;6.50;;;;;;;;;;4976253;28;20034;-55
2023/10/26 04:19:50;;;;;;;131.82;4.88;;;;;;;;;;4976933;28;20283;-55
2023/10/26 04:22:15;;;;;;;156.73;5.55;;;;;;;;;;4973175;28;20125;-55
2023/10/26 04:24:41;;;;;;;279.37;9.97;;;;;;;;;;4976558;28;20025;-55
2023/10/26 04:27:06;;;;;;;97.93;4.18;;;;;;;;;;4974727;28;20297;-55
2023/10/26 04:29:31;;;;;;;254.23;9.70;;;;;;;;;;4974939;28;20025;-55
2023/10/26 04:31:57;;;;;;;193.38;7.05;;;;;;;;;;4975329;28;20371;-54
2023/10/26 04:34:22;;;;;;;138.63;5.50;;;;;;;;;;4976896;28;20034;-55
2023/10/26 04:36:48;;;;;;;172.55;6.25;;;;;;;;;;4975713;28;20031;-54
2023/10/26 04:39:15;;;;;;;155.05;5.43;;;;;;;;;;4976689;28;20100;-55
2023/10/26 04:41:40;;;;;;;202.45;10.35;;;;;;;;;;4976882;28;20045;-54
2023/10/26 04:44:06;;;;;;;190.38;6.65;;;;;;;;;;4977865;28;20019;-55
2023/10/26 04:46:32;;;;;;;247.00;9.20;;;;;;;;;;4975344;28;20039;-55
2023/10/26 04:48:57;;;;;;;145.93;5.32;;;;;;;;;;4978040;28;20030;-54
2023/10/26 04:51:22;;;;;;;131.90;4.97;;;;;;;;;;4976035;28;20034;-54
2023/10/26 04:53:48;;;;;;;186.80;6.45;;;;;;;;;;4975753;28;20014;-54
2023/10/26 04:56:13;;;;;;;118.80;4.68;;;;;;;;;;4976711;28;20324;-54
2023/10/26 04:58:39;;;;;;;208.77;7.57;;;;;;;;;;4977144;28;20145;-54
2023/10/26 05:01:05;;;;;;;163.02;5.78;;;;;;;;;;4974487;28;20031;-55
2023/10/26 05:03:30;;;;;;;208.35;7.80;;;;;;;;;;4976982;28;20562;-54
2023/10/26 05:05:56;;;;;;;149.23;5.38;;;;;;;;;;4979410;28;20084;-54
2023/10/26 05:08:21;;;;;;;171.38;5.97;;;;;;;;;;4977334;28;20398;-55
2023/10/26 05:10:46;;;;;;;161.77;5.93;;;;;;;;;;4981207;28;20093;-55
2023/10/26 05:13:12;;;;;;;136.23;5.05;;;;;;;;;;4981647;28;20032;-54
2023/10/26 05:15:37;;;;;;;186.85;6.53;;;;;;;;;;4978518;28;20066;-55
2023/10/26 05:18:03;;;;;;;133.67;5.27;;;;;;;;;;4978849;28;20524;-55
2023/10/26 05:20:30;;;;;;;150.38;5.82;;;;;;;;;;4978432;28;20266;-55
2023/10/26 05:22:55;;;;;;;194.55;6.95;;;;;;;;;;4980191;28;20379;-54
2023/10/26 05:25:20;;;;;;;168.45;6.28;;;;;;;;;;4978181;28;20502;-55
2023/10/26 05:27:46;;;;;;;133.48;5.45;;;;;;;;;;4976675;28;21006;-55
2023/10/26 05:30:11;;;;;;;180.45;6.60;;;;;;;;;;4978589;28;20048;-54
2023/10/26 05:32:37;;;;;;;269.55;10.13;;;;;;;;;;4979922;28;20026;-55
2023/10/26 05:35:03;;;;;;;150.43;5.70;;;;;;;;;;4979752;28;20037;-55
2023/10/26 05:37:29;;;;;;;174.95;6.00;;;;;;;;;;4976886;28;20080;-55
2023/10/26 05:39:54;;;;;;;166.98;5.97;;;;;;;;;;4980118;28;20026;-55
2023/10/26 05:42:19;;;;;;;141.03;5.23;;;;;;;;;;4978700;28;20491;-55
2023/10/26 05:44:44;;;;;;;273.73;10.90;;;;;;;;;;4974674;28;20281;-54
2023/10/26 05:47:10;;;;;;;157.68;6.93;;;;;;;;;;4979032;28;20031;-54
2023/10/26 05:49:35;;;;;;;149.13;6.07;;;;;;;;;;4978453;28;20053;-55
2023/10/26 05:52:01;;;;;;;190.15;7.13;;;;;;;;;;4979687;28;20038;-55
2023/10/26 05:54:27;;;;;;;133.85;5.15;;;;;;;;;;4981068;28;20289;-55
2023/10/26 05:56:52;;;;;;;109.00;4.50;;;;;;;;;;4977920;28;20779;-55
2023/10/26 05:59:17;;;;;;;155.87;6.03;;;;;;;;;;4981208;28;20104;-55
2023/10/26 06:01:43;;;;;;;225.73;8.52;;;;;;;;;;4977503;28;20317;-55
2023/10/26 06:04:08;;;;;;;211.80;7.50;;;;;;;;;;4976467;28;20018;-55
2023/10/26 06:06:33;;;;;;;240.17;9.03;;;;;;;;;;4974993;28;20034;-55
2023/10/26 06:08:59;;;;;;;172.52;6.50;;;;;;;;;;4978677;28;20277;-56
2023/10/26 06:11:25;;;;;;;186.90;6.55;;;;;;;;;;4980229;28;20050;-55
2023/10/26 06:13:51;;;;;;;226.52;8.10;;;;;;;;;;4976770;28;20023;-55
2023/10/26 06:16:17;;;;;;;191.60;6.93;;;;;;;;;;4976589;28;20487;-55
2023/10/26 06:18:42;;;;;;;230.32;8.45;;;;;;;;;;4975825;28;20025;-55
2023/10/26 06:21:08;;;;;;;173.65;6.57;;;;;;;;;;4976900;28;20482;-55
2023/10/26 06:23:33;;;;;;;237.07;8.70;;;;;;;;;;4976045;28;20470;-54
2023/10/26 06:25:59;;;;;;;174.27;6.45;;;;;;;;;;4977941;28;20061;-55
2023/10/26 06:28:25;;;;;;;138.18;5.63;;;;;;;;;;4980179;28;20195;-54
2023/10/26 06:30:50;;;;;;;208.15;7.43;;;;;;;;;;4975258;28;20595;-54
2023/10/26 06:33:16;;;;;;;136.32;5.22;;;;;;;;;;4976141;28;20702;-54
2023/10/26 06:35:41;;;;;;;199.95;7.25;;;;;;;;;;4978061;28;20034;-53
2023/10/26 06:38:06;;;;;;;220.30;7.70;;;;;;;;;;4978608;28;20025;-54
2023/10/26 06:40:31;;;;;;;188.65;7.18;;;;;;;;;;4973793;28;20114;-54
2023/10/26 06:42:57;;;;;;;163.20;6.20;;;;;;;;;;4975648;28;20049;-54
2023/10/26 06:45:22;;;;;;;159.45;6.32;;;;;;;;;;4975393;28;20261;-54
2023/10/26 06:47:47;;;;;;;234.27;8.57;;;;;;;;;;4974537;28;20036;-54
2023/10/26 06:50:12;;;;;;;172.00;6.47;;;;;;;;;;4977594;28;20253;-54
2023/10/26 06:52:37;;;;;;;250.27;9.17;;;;;;;;;;4977235;28;20693;-54
2023/10/26 06:55:03;;;;;;;148.75;6.28;;;;;;;;;;4974832;28;20964;-54
2023/10/26 06:57:28;;;;;;;155.02;6.25;;;;;;;;;;4977515;28;20532;-54
2023/10/26 06:59:54;;;;;;;190.38;7.30;;;;;;;;;;4973335;28;20049;-54
2023/10/26 07:02:19;;;;;;;142.88;5.78;;;;;;;;;;4972266;28;20119;-54
2023/10/26 07:04:44;;;;;;;227.10;9.10;;;;;;;;;;4977734;28;20586;-54
2023/10/26 07:07:09;;;;;;;141.00;5.45;;;;;;;;;;4978962;28;20045;-55
2023/10/26 07:09:36;;;;;;;131.67;5.63;;;;;;;;;;4978262;28;20022;-54
2023/10/26 07:12:02;;;;;;;133.35;5.43;;;;;;;;;;4979722;28;20289;-54
2023/10/26 07:14:27;;;;;;;124.32;5.20;;;;;;;;;;4980082;28;20373;-54
2023/10/26 07:16:52;;;;;;;150.68;5.85;;;;;;;;;;4977339;28;20552;-54
2023/10/26 07:19:17;;;;;;;141.00;5.83;;;;;;;;;;4981578;28;20022;-55
2023/10/26 07:21:44;;;;;;;197.30;8.20;;;;;;;;;;4978781;28;20404;-54
2023/10/26 07:24:09;;;;;;;127.47;5.35;;;;;;;;;;4977790;28;20292;-54
2023/10/26 07:26:34;;;;;;;125.65;5.55;;;;;;;;;;4976381;28;20050;-56
2023/10/26 07:29:00;;;;;;;89.30;4.30;;;;;;;;;;4981667;28;20018;-55
2023/10/26 07:31:26;;;;;;;94.20;4.50;;;;;;;;;;4979393;28;20034;-54
2023/10/26 07:33:51;;;;;;;239.48;8.85;;;;;;;;;;4980524;28;20022;-55
2023/10/26 07:36:16;;;;;;;106.95;4.35;;;;;;;;;;4980421;28;20498;-56
2023/10/26 07:38:41;;;;;;;221.57;8.52;;;;;;;;;;4978626;28;20281;-54
2023/10/26 07:41:08;;;;;;;134.32;5.35;;;;;;;;;;4978449;28;20027;-54
2023/10/26 07:43:35;;;;;;;90.30;4.35;;;;;;;;;;4980720;28;20045;-54
2023/10/26 07:46:01;;;;;;;144.20;5.90;;;;;;;;;;4980692;28;20589;-54
2023/10/26 07:48:26;;;;;;;137.38;5.13;;;;;;;;;;4978725;28;20117;-54
2023/10/26 07:50:51;;;;;;;223.30;8.93;;;;;;;;;;4977544;28;20035;-53
2023/10/26 07:53:17;;;;;;;131.43;5.53;;;;;;;;;;4980682;28;20298;-53
2023/10/26 07:55:43;;;;;;;179.23;6.72;;;;;;;;;;4977477;28;20395;-54
2023/10/26 07:58:09;;;;;;;90.57;4.25;;;;;;;;;;4979058;28;20024;-54
2023/10/26 08:00:37;;;;;;;151.82;5.80;;;;;;;;;;4978875;28;20022;-54
2023/10/26 08:03:02;;;;;;;129.48;5.07;;;;;;;;;;4979409;28;20319;-54
2023/10/26 08:05:27;;;;;;;75.80;3.22;;;;;;;;;;4980240;28;20434;-54
2023/10/26 08:07:53;;;;;;;212.88;8.52;;;;;;;;;;4980030;28;20018;-54
2023/10/26 08:10:18;;;;;;;89.72;3.80;;;;;;;;;;4981231;28;20363;-54
2023/10/26 08:12:43;;;;;;;161.30;6.03;;;;;;;;;;4981402;28;20022;-54
2023/10/26 08:15:09;;;;;;;101.95;4.15;;;;;;;;;;4984405;28;20015;-54
2023/10/26 08:17:35;;;;;;;118.18;4.80;;;;;;;;;;4979956;28;20054;-54
2023/10/26 08:20:01;;;;;;;117.50;4.47;;;;;;;;;;4976485;28;20113;-54
2023/10/26 08:22:29;;;;;;;88.38;3.83;;;;;;;;;;4979369;28;20030;-54
2023/10/26 08:24:54;;;;;;;211.23;7.70;;;;;;;;;;4977946;28;20025;-55
2023/10/26 08:27:22;;;;;;;104.50;4.35;;;;;;;;;;4980299;28;20038;-55
2023/10/26 08:29:47;;;;;;;227.98;9.00;;;;;;;;;;4975573;28;20362;-54
2023/10/26 08:32:12;;;;;;;104.03;4.15;;;;;;;;;;4978675;28;20224;-54
2023/10/26 08:34:38;;;;;;;135.93;5.38;;;;;;;;;;4977298;28;20014;-55
2023/10/26 08:37:03;;;;;;;70.88;3.42;;;;;;;;;;4978404;28;20034;-54
2023/10/26 08:39:29;;;;;;;62.63;2.97;;;;;;;;;;4983972;28;20034;-54
2023/10/26 08:41:58;;;;;;;208.65;8.50;;;;;;;;;;4982188;28;20035;-55
2023/10/26 08:44:24;;;;;;;78.57;3.90;;;;;;;;;;4984320;28;20547;-55
2023/10/26 08:46:51;;;;;;;180.88;7.32;;;;;;;;;;4983598;28;20046;-54
2023/10/26 08:49:16;;;;;;;124.30;5.07;;;;;;;;;;4986626;28;20011;-54
2023/10/26 08:51:41;;;;;;;156.25;6.47;;;;;;;;;;4983648;28;20057;-54
2023/10/26 08:54:07;;;;;;;107.88;4.47;;;;;;;;;;4986265;28;20173;-54
2023/10/26 08:56:32;;;;;;;116.32;4.75;;;;;;;;;;4984343;28;20102;-54
2023/10/26 08:58:57;;;;;;;129.52;5.30;;;;;;;;;;4983360;28;20471;-54
2023/10/26 09:01:23;;;;;;;60.90;2.92;;;;;;;;;;4984712;28;20034;-55
2023/10/26 09:03:48;;;;;;;209.80;8.57;;;;;;;;;;4982782;28;20307;-55
2023/10/26 09:06:13;;;;;;;94.03;3.97;;;;;;;;;;4982632;28;20038;-54
2023/10/26 09:08:39;;;;;;;83.78;3.75;;;;;;;;;;4984880;28;20288;-54
2023/10/26 09:11:19;;;;;;;109.45;8.38;;;;;;;;;;4983081;28;20105;-54
2023/10/26 09:13:44;;;;;;;176.88;15.77;;;;;;;;;;4985367;28;20097;-55
2023/10/26 09:16:09;;;;;;;115.37;4.43;;;;;;;;;;4985272;28;20121;-54
2023/10/26 09:18:36;;;;;;;109.57;4.37;;;;;;;;;;4985628;28;20285;-54
2023/10/26 09:21:05;;;;;;;68.00;3.22;;;;;;;;;;4982748;28;20301;-55
2023/10/26 09:23:32;;;;;;;110.28;4.47;;;;;;;;;;4984031;28;20153;-54
2023/10/26 09:25:57;;;;;;;220.15;11.38;;;;;;;;;;4982828;28;20046;-55
2023/10/26 09:28:23;;;;;;;90.57;4.00;;;;;;;;;;4984105;28;20458;-55
2023/10/26 09:30:48;;;;;;;152.55;6.00;;;;;;;;;;4981505;28;20042;-54
2023/10/26 09:33:23;;;;;;;149.13;5.60;;;;;;;;;;4985546;28;20489;-53
2023/10/26 09:35:49;;;;;;;271.60;35.85;;;;;;;;;;4982841;28;20633;-54
2023/10/26 09:38:15;;;;;;;119.57;4.70;;;;;;;;;;4982873;28;20126;-54
2023/10/26 09:40:40;;;;;;;91.75;3.95;;;;;;;;;;4982710;28;20293;-55
2023/10/26 09:43:05;;;;;;;129.63;5.80;;;;;;;;;;4982984;28;20097;-54
2023/10/26 09:45:31;;;;;;;99.03;4.13;;;;;;;;;;4982464;28;20402;-54
2023/10/26 09:47:57;;;;;;;201.82;12.10;;;;;;;;;;4982271;28;20257;-55
2023/10/26 09:50:23;;;;;;;109.28;4.32;;;;;;;;;;4981755;28;20386;-54
2023/10/26 09:52:49;;;;;;;236.77;9.32;;;;;;;;;;4982432;28;20029;-55
2023/10/26 09:55:16;;;;;;;89.72;5.22;;;;;;;;;;4985404;28;20109;-54
2023/10/26 09:57:56;;;;;;;141.57;5.32;;;;;;;;;;4987340;28;20018;-54
2023/10/26 10:00:27;;;;;;;85.78;3.75;;;;;;;;;;4982698;28;20022;-55
2023/10/26 10:03:09;;;;;;;218.27;8.88;;;;;;;;;;4981708;28;20189;-53
2023/10/26 10:05:37;;;;;;;64.43;3.08;;;;;;;;;;4982765;28;20085;-55
2023/10/26 10:08:03;;;;;;;133.25;5.30;;;;;;;;;;4981725;28;20084;-54
2023/10/26 10:10:28;;;;;;;132.10;8.98;;;;;;;;;;4982587;28;20479;-53
2023/10/26 10:12:53;;;;;;;138.65;5.68;;;;;;;;;;4983076;28;20025;-55
2023/10/26 10:15:32;;;;;;;121.53;15.20;;;;;;;;;;4982656;28;20018;-54
2023/10/26 10:17:57;;;;;;;190.15;8.35;;;;;;;;;;4982578;28;20458;-54
2023/10/26 10:20:22;;;;;;;123.17;5.13;;;;;;;;;;4982740;28;20023;-54
2023/10/26 10:22:48;;;;;;;242.07;9.73;;;;;;;;;;4978568;28;20019;-54
2023/10/26 10:25:14;;;;;;;132.40;10.07;;;;;;;;;;4980978;28;20814;-54
2023/10/26 10:27:59;;;;;;;147.75;5.38;;;;;;;;;;4984705;28;20026;-56
2023/10/26 10:30:29;;;;;;;45.55;2.58;;;;;;;;;;4982639;28;20691;-55
2023/10/26 10:32:55;;;;;;;206.75;8.45;;;;;;;;;;4981702;28;20026;-54
2023/10/26 10:35:21;;;;;;;141.18;5.38;;;;;;;;;;4983068;28;20486;-54
2023/10/26 10:38:05;;;;;;;110.25;4.43;;;;;;;;;;4982448;28;20028;-54
2023/10/26 10:40:30;;;;;;;101.13;4.25;;;;;;;;;;4981286;28;20092;-56
2023/10/26 10:42:56;;;;;;;189.70;8.02;;;;;;;;;;4981351;28;20038;-55
2023/10/26 10:45:22;;;;;;;114.93;4.93;;;;;;;;;;4980800;28;20107;-54
2023/10/26 10:47:47;;;;;;;128.52;5.15;;;;;;;;;;4980302;28;20019;-54
2023/10/26 10:50:16;;;;;;;104.50;5.53;;;;;;;;;;4982753;28;20022;-56
2023/10/26 10:52:42;;;;;;;178.90;6.47;;;;;;;;;;4981187;28;20277;-56
2023/10/26 10:55:07;;;;;;;96.53;4.40;;;;;;;;;;4981742;28;20034;-56
2023/10/26 10:57:32;;;;;;;90.18;4.05;;;;;;;;;;4981137;28;20042;-55
2023/10/26 10:59:58;;;;;;;205.10;8.43;;;;;;;;;;4979474;28;20097;-56
2023/10/26 11:02:23;;;;;;;88.33;3.93;;;;;;;;;;4982356;28;20039;-54
2023/10/26 11:04:55;;;;;;;133.47;5.37;;;;;;;;;;4981952;28;20690;-53
2023/10/26 11:07:24;;;;;;;111.30;8.93;;;;;;;;;;4980141;28;20308;-55
2023/10/26 11:09:54;;;;;;;124.72;4.97;;;;;;;;;;4982293;28;20027;-55
2023/10/26 11:12:19;;;;;;;125.50;4.88;;;;;;;;;;4981727;28;20188;-55
2023/10/26 11:14:52;;;;;;;140.27;5.28;;;;;;;;;;4981612;28;20101;-55
2023/10/26 11:17:17;;;;;;;93.15;6.00;;;;;;;;;;4981873;28;20505;-55
2023/10/26 11:19:43;;;;;;;166.98;6.28;;;;;;;;;;4981441;28;20469;-55
2023/10/26 11:22:08;;;;;;;82.35;3.60;;;;;;;;;;4982465;28;20027;-54
2023/10/26 11:24:35;;;;;;;86.78;3.80;;;;;;;;;;4986837;28;20026;-55
2023/10/26 11:27:07;;;;;;;164.55;6.07;;;;;;;;;;4982710;28;20096;-55
2023/10/26 11:29:33;;;;;;;96.35;4.03;;;;;;;;;;4981632;28;20176;-55
2023/10/26 11:31:58;;;;;;;111.45;4.65;;;;;;;;;;4980633;28;20141;-55
2023/10/26 11:34:27;;;;;;;134.05;5.32;;;;;;;;;;4981675;28;20270;-55
2023/10/26 11:36:52;;;;;;;107.38;4.43;;;;;;;;;;4984714;28;20089;-55
2023/10/26 11:39:18;;;;;;;160.82;18.10;;;;;;;;;;4983942;28;20122;-54
2023/10/26 11:41:51;;;;;;;108.95;6.50;;;;;;;;;;4983271;28;20355;-55
2023/10/26 11:44:26;;;;;;;117.60;4.32;;;;;;;;;;4979981;28;20050;-55
2023/10/26 11:46:58;;;;;;;156.60;5.72;;;;;;;;;;4983053;28;20045;-55
2023/10/26 11:49:39;;;;;;;81.60;3.47;;;;;;;;;;4981757;28;20600;-56
2023/10/26 11:52:05;;;;;;;155.85;5.90;;;;;;;;;;4981550;28;20056;-55
2023/10/26 11:54:30;;;;;;;96.80;4.18;;;;;;;;;;4983124;28;20466;-54
2023/10/26 11:56:56;;;;;;;94.68;3.97;;;;;;;;;;4981588;28;20089;-55
2023/10/26 11:59:21;;;;;;;123.15;4.90;;;;;;;;;;4983994;28;20029;-55
2023/10/26 12:01:46;;;;;;;123.15;13.63;;;;;;;;;;4981630;28;20062;-55
2023/10/26 12:04:12;;;;;;;124.20;5.18;;;;;;;;;;4984274;28;20113;-55
2023/10/26 12:06:37;;;;;;;106.40;4.75;;;;;;;;;;4986019;28;20501;-54
2023/10/26 12:09:04;;;;;;;150.68;6.35;;;;;;;;;;4981298;28;20278;-55
2023/10/26 12:11:30;;;;;;;95.40;4.28;;;;;;;;;;4982813;28;20030;-55
2023/10/26 12:13:55;;;;;;;132.57;5.85;;;;;;;;;;4983536;28;20388;-55
2023/10/26 12:16:20;;;;;;;96.30;4.50;;;;;;;;;;4982846;28;20026;-54
2023/10/26 12:18:45;;;;;;;115.53;5.10;;;;;;;;;;4982175;28;20273;-55
2023/10/26 12:21:11;;;;;;;115.90;6.30;;;;;;;;;;4980343;28;20029;-55
2023/10/26 12:23:36;;;;;;;104.65;12.10;;;;;;;;;;4983177;28;20780;-55
2023/10/26 12:26:01;;;;;;;157.00;9.67;;;;;;;;;;4979576;28;20129;-55
2023/10/26 12:28:26;;;;;;;117.03;6.87;;;;;;;;;;4982007;28;20266;-54
2023/10/26 12:30:53;;;;;;;144.10;6.55;;;;;;;;;;4979851;28;20759;-55
2023/10/26 12:33:18;;;;;;;156.52;6.53;;;;;;;;;;4979745;28;20018;-55
2023/10/26 12:35:43;;;;;;;74.75;5.85;;;;;;;;;;4977099;28;20379;-55
2023/10/26 12:38:09;;;;;;;86.90;4.85;;;;;;;;;;4978991;28;20053;-55
2023/10/26 12:40:34;;;;;;;143.95;6.25;;;;;;;;;;4980181;28;20034;-55
2023/10/26 12:42:59;;;;;;;137.27;6.10;;;;;;;;;;4981649;28;20033;-55
2023/10/26 12:45:25;;;;;;;95.25;4.95;;;;;;;;;;4981474;28;20498;-55
2023/10/26 12:47:50;;;;;;;153.65;6.40;;;;;;;;;;4984744;28;20441;-55
2023/10/26 12:50:15;;;;;;;111.70;5.63;;;;;;;;;;4981347;28;20022;-54
2023/10/26 12:52:40;;;;;;;147.38;6.25;;;;;;;;;;4980863;28;20029;-55
2023/10/26 12:55:06;;;;;;;163.93;7.40;;;;;;;;;;4981437;28;20104;-54
2023/10/26 12:57:31;;;;;;;89.05;4.65;;;;;;;;;;4981113;28;20277;-55
2023/10/26 12:59:56;;;;;;;101.50;5.05;;;;;;;;;;4980784;28;20121;-55
2023/10/26 13:02:21;;;;;;;138.07;6.00;;;;;;;;;;4978589;28;20057;-55
2023/10/26 13:04:47;;;;;;;116.28;5.88;;;;;;;;;;4981264;28;20264;-55
2023/10/26 13:07:12;;;;;;;99.75;5.03;;;;;;;;;;4978031;28;20505;-55
2023/10/26 13:09:41;;;;;;;123.72;5.90;;;;;;;;;;4982571;28;20045;-54
2023/10/26 13:12:06;;;;;;;117.50;6.03;;;;;;;;;;4980128;28;20498;-55
2023/10/26 13:14:32;;;;;;;62.40;3.65;;;;;;;;;;4979352;28;20258;-55
2023/10/26 13:16:57;;;;;;;161.57;7.40;;;;;;;;;;4978643;28;20544;-55
2023/10/26 13:19:22;;;;;;;68.10;3.78;;;;;;;;;;4980855;28;20134;-55
2023/10/26 13:21:48;;;;;;;91.38;4.75;;;;;;;;;;4980915;28;20502;-55
2023/10/26 13:24:13;;;;;;;170.32;6.32;;;;;;;;;;4980862;28;20027;-54
2023/10/26 13:26:38;;;;;;;88.63;4.63;;;;;;;;;;4985091;28;20038;-54
2023/10/26 13:29:03;;;;;;;121.07;5.87;;;;;;;;;;4985190;28;20749;-54
2023/10/26 13:31:29;;;;;;;135.77;5.97;;;;;;;;;;4985430;28;20309;-55
2023/10/26 13:33:54;;;;;;;131.85;5.93;;;;;;;;;;4985111;28;20022;-54
2023/10/26 13:36:20;;;;;;;78.32;4.28;;;;;;;;;;4986170;28;20035;-55
2023/10/26 13:38:45;;;;;;;141.93;5.80;;;;;;;;;;4987504;28;20015;-56
2023/10/26 13:41:10;;;;;;;93.28;4.70;;;;;;;;;;4985221;28;20034;-56
2023/10/26 13:43:36;;;;;;;64.75;3.78;;;;;;;;;;4984690;28;20101;-56
2023/10/26 13:46:05;;;;;;;213.77;8.38;;;;;;;;;;4984084;28;20062;-55
2023/10/26 13:48:30;;;;;;;78.85;4.25;;;;;;;;;;4986278;28;20037;-56
2023/10/26 13:50:55;;;;;;;116.45;5.18;;;;;;;;;;4983729;28;20022;-55
2023/10/26 13:53:21;;;;;;;156.48;6.43;;;;;;;;;;4984039;28;20038;-54
2023/10/26 13:55:46;;;;;;;83.80;4.25;;;;;;;;;;4984991;28;20038;-54
2023/10/26 13:58:11;;;;;;;125.67;5.60;;;;;;;;;;4985025;28;20019;-54
2023/10/26 14:00:37;;;;;;;159.63;7.07;;;;;;;;;;4981321;28;20265;-55
2023/10/26 14:03:03;;;;;;;124.35;5.80;;;;;;;;;;4982051;28;20306;-54
2023/10/26 14:05:28;;;;;;;78.70;4.35;;;;;;;;;;4984581;28;20045;-54
2023/10/26 14:07:54;;;;;;;202.05;29.45;;;;;;;;;;4983500;28;20112;-54
2023/10/26 14:10:19;;;;;;;81.07;4.18;;;;;;;;;;4987051;28;20034;-55